Time;durP1;ratioP1;P1;durP2;ratioP2;P2;SDS_P1;SDS_P2;PMS_P1;PMS_P2;Temp;Humidity;BMP_temperature;BMP_pressure;BME280_temperature;BME280_humidity;BME280_pressure;Samples;Min_cycle;Max_cycle;Signal;HPM_P1;HPM_P2
2022/11/03 00:00:03;;;;;;;4.32;2.42;;;18.60;70.70;;;;;;6315791;22;20132;-81
2022/11/03 00:02:29;;;;;;;3.70;2.63;;;18.60;70.60;;;;;;6290330;22;20136;-82
2022/11/03 00:04:55;;;;;;;4.60;2.70;;;18.60;70.60;;;;;;6289651;22;20148;-81
2022/11/03 00:07:21;;;;;;;3.42;2.60;;;18.60;70.60;;;;;;6324960;22;20518;-81
2022/11/03 00:09:47;;;;;;;4.43;2.55;;;18.60;70.60;;;;;;6259232;22;20140;-81
2022/11/03 00:12:13;;;;;;;3.67;2.40;;;18.60;70.60;;;;;;6284815;22;20467;-81
2022/11/03 00:14:39;;;;;;;3.30;2.35;;;18.60;70.70;;;;;;6285094;22;20154;-82
2022/11/03 00:17:05;;;;;;;5.75;2.50;;;18.70;70.70;;;;;;6259229;22;20589;-81
2022/11/03 00:19:31;;;;;;;3.25;2.45;;;18.60;70.70;;;;;;6258806;22;20144;-82
2022/11/03 00:21:58;;;;;;;4.20;2.50;;;18.50;70.70;;;;;;6284098;22;20160;-82
2022/11/03 00:24:24;;;;;;;4.13;2.50;;;18.60;70.70;;;;;;6284443;22;20226;-82
2022/11/03 00:26:50;;;;;;;4.40;2.33;;;18.60;70.80;;;;;;6311934;22;20167;-80
2022/11/03 00:29:23;;;;;;;4.07;2.38;;;18.60;70.90;;;;;;6311911;22;20580;-81
2022/11/03 00:31:53;;;;;;;3.60;2.67;;;18.60;70.80;;;;;;6208861;22;20148;-81
2022/11/03 00:34:19;;;;;;;3.75;2.50;;;18.60;70.70;;;;;;6207957;22;20433;-83
2022/11/03 00:36:45;;;;;;;3.33;2.35;;;18.60;70.90;;;;;;6284163;22;20139;-81
2022/11/03 00:39:11;;;;;;;4.03;2.53;;;18.60;70.70;;;;;;6311751;22;20143;-81
2022/11/03 00:41:37;;;;;;;3.15;2.33;;;18.60;70.90;;;;;;6284498;22;20154;-81
2022/11/03 00:44:03;;;;;;;4.18;2.42;;;18.60;70.90;;;;;;6284186;22;20159;-82
2022/11/03 00:46:33;;;;;;;4.57;2.13;;;18.60;70.90;;;;;;6311810;22;20488;-81
2022/11/03 00:49:00;;;;;;;3.42;2.38;;;18.60;71.00;;;;;;6284927;22;20140;-82
2022/11/03 00:51:28;;;;;;;3.10;2.40;;;18.60;71.00;;;;;;6258879;22;20148;-81
2022/11/03 00:53:56;;;;;;;4.75;2.95;;;18.60;71.00;;;;;;6311666;22;20181;-81
2022/11/03 00:56:24;;;;;;;3.47;2.70;;;18.60;71.00;;;;;;6311509;22;20132;-81
2022/11/03 00:58:51;;;;;;;3.50;2.50;;;18.50;70.90;;;;;;6284395;22;20147;-82
2022/11/03 01:01:18;;;;;;;2.70;2.47;;;18.60;70.90;;;;;;6284334;22;20140;-81
2022/11/03 01:09:09;;;;;;;4.05;2.53;;;18.60;70.90;;;;;;6287412;22;20193;-81
2022/11/03 01:11:50;;;;;;;3.83;2.45;;;18.50;70.70;;;;;;6284015;22;20128;-82
2022/11/03 01:14:15;;;;;;;2.95;2.65;;;18.60;70.80;;;;;;6284354;22;20148;-81
2022/11/03 01:16:46;;;;;;;3.85;2.70;;;18.60;71.00;;;;;;6284166;22;20139;-81
2022/11/03 01:19:11;;;;;;;4.57;2.60;;;18.50;70.90;;;;;;6207583;22;20152;-81
2022/11/03 01:21:37;;;;;;;4.18;2.60;;;18.50;71.00;;;;;;6283974;22;20490;-82
2022/11/03 01:24:07;;;;;;;3.05;2.20;;;18.60;71.00;;;;;;6311625;22;20579;-81
2022/11/03 01:26:33;;;;;;;2.75;2.25;;;18.50;70.80;;;;;;6182642;22;20270;-80
2022/11/03 01:28:59;;;;;;;4.22;2.55;;;18.50;70.90;;;;;;6283960;22;20132;-81
2022/11/03 01:31:25;;;;;;;3.42;2.70;;;18.50;71.00;;;;;;6258667;22;20213;-81
2022/11/03 01:33:52;;;;;;;3.38;2.47;;;18.40;71.00;;;;;;6311553;22;20136;-81
2022/11/03 01:36:18;;;;;;;3.97;2.38;;;18.50;71.20;;;;;;6284095;22;20136;-82
2022/11/03 01:38:44;;;;;;;2.85;2.40;;;18.50;71.10;;;;;;6258125;22;20228;-82
2022/11/03 01:41:14;;;;;;;3.75;2.40;;;18.50;71.90;;;;;;6258123;22;20152;-82
2022/11/03 01:43:40;;;;;;;4.82;2.78;;;18.50;71.00;;;;;;6259662;22;20180;-81
2022/11/03 01:46:25;;;;;;;3.38;2.60;;;18.50;71.10;;;;;;6283304;22;20553;-81
2022/11/03 01:48:58;;;;;;;3.20;2.40;;;18.50;71.10;;;;;;6311423;22;20571;-82
2022/11/03 01:51:24;;;;;;;3.70;2.38;;;18.50;71.00;;;;;;6310625;22;20215;-82
2022/11/03 01:53:51;;;;;;;4.43;2.80;;;18.50;70.90;;;;;;6283935;22;20128;-81
2022/11/03 01:56:17;;;;;;;6.40;2.55;;;18.50;71.10;;;;;;6310983;22;20186;-81
2022/11/03 01:58:43;;;;;;;4.90;2.50;;;18.50;70.90;;;;;;6310851;22;20137;-81
2022/11/03 02:01:09;;;;;;;3.47;2.45;;;18.50;71.00;;;;;;6283739;22;20147;-81
2022/11/03 02:03:44;;;;;;;3.33;2.40;;;18.50;70.90;;;;;;6310836;22;20136;-81
2022/11/03 02:06:09;;;;;;;4.75;2.65;;;18.50;70.70;;;;;;6232768;22;20175;-82
2022/11/03 02:08:40;;;;;;;4.22;2.40;;;18.50;70.70;;;;;;6283313;22;20183;-81
2022/11/03 02:13:42;;;;;;;3.03;2.35;;;18.50;70.70;;;;;;6311544;22;20215;-81
2022/11/03 02:16:08;;;;;;;5.32;2.70;;;18.50;70.60;;;;;;6283682;22;20182;-82
2022/11/03 02:18:33;;;;;;;3.28;2.50;;;18.50;70.90;;;;;;6257864;22;20156;-80
2022/11/03 02:21:16;;;;;;;3.55;2.40;;;18.50;70.80;;;;;;6310186;22;20136;-82
2022/11/03 02:24:00;;;;;;;2.80;2.20;;;18.50;70.80;;;;;;6310341;22;20563;-81
2022/11/03 02:26:26;;;;;;;3.15;2.50;;;18.50;71.50;;;;;;6257473;22;20622;-82
2022/11/03 02:28:52;;;;;;;3.05;2.33;;;18.50;70.60;;;;;;6282907;22;20140;-82
2022/11/03 02:31:27;;;;;;;3.67;2.40;;;18.50;70.70;;;;;;6283627;22;20139;-84
2022/11/03 02:34:05;;;;;;;3.22;2.45;;;18.50;71.60;;;;;;6310392;22;20131;-81
2022/11/03 02:36:41;;;;;;;3.50;2.40;;;18.50;70.60;;;;;;6311447;22;20164;-81
2022/11/03 02:39:12;;;;;;;3.60;2.25;;;18.50;70.80;;;;;;6284141;22;20173;-82
2022/11/03 02:41:38;;;;;;;3.85;2.47;;;18.50;70.90;;;;;;6284448;22;20578;-82
2022/11/03 02:44:06;;;;;;;5.22;2.60;;;18.50;70.80;;;;;;6285046;22;20148;-81
2022/11/03 02:46:32;;;;;;;3.75;2.33;;;18.50;71.00;;;;;;6313982;22;20160;-81
2022/11/03 02:48:58;;;;;;;3.17;2.58;;;18.50;71.10;;;;;;6286820;22;20129;-81
2022/11/03 02:51:24;;;;;;;3.50;2.60;;;18.50;71.00;;;;;;6261162;22;20164;-81
2022/11/03 02:54:05;;;;;;;3.08;2.42;;;18.50;71.20;;;;;;6286961;22;20205;-81
2022/11/03 02:56:32;;;;;;;3.85;2.30;;;18.40;71.10;;;;;;6311364;22;20167;-81
2022/11/03 02:59:00;;;;;;;3.92;2.50;;;18.50;71.00;;;;;;6310090;22;20139;-81
2022/11/03 03:01:45;;;;;;;3.78;2.33;;;18.50;71.00;;;;;;6282859;22;20139;-82
2022/11/03 03:04:30;;;;;;;3.53;2.40;;;18.50;70.90;;;;;;6323013;22;20135;-83
2022/11/03 03:07:11;;;;;;;4.20;2.55;;;18.50;70.80;;;;;;6302945;22;20279;-81
2022/11/03 03:09:53;;;;;;;3.13;2.55;;;18.50;70.90;;;;;;6283411;22;20231;-82
2022/11/03 03:12:33;;;;;;;4.18;2.42;;;18.50;71.10;;;;;;6260035;22;20179;-82
2022/11/03 03:14:59;;;;;;;3.30;2.40;;;18.40;70.90;;;;;;6232565;22;20147;-82
2022/11/03 03:17:49;;;;;;;3.25;2.42;;;18.50;70.90;;;;;;6309668;22;20190;-81
2022/11/03 03:20:25;;;;;;;3.67;2.42;;;18.40;70.70;;;;;;6234289;22;20156;-81
2022/11/03 03:22:55;;;;;;;5.35;2.45;;;18.50;70.70;;;;;;6308854;22;20556;-81
2022/11/03 03:25:36;;;;;;;3.53;2.10;;;18.50;70.60;;;;;;6283361;22;20213;-81
2022/11/03 03:28:04;;;;;;;3.17;2.40;;;18.40;70.50;;;;;;6257282;22;20235;-82
2022/11/03 03:30:34;;;;;;;2.83;2.22;;;18.50;70.50;;;;;;6310169;22;20156;-82
2022/11/03 03:33:00;;;;;;;3.42;2.70;;;18.50;70.90;;;;;;6257288;22;20639;-81
2022/11/03 03:35:29;;;;;;;3.97;2.50;;;18.50;70.90;;;;;;6309080;22;20456;-81
2022/11/03 03:38:02;;;;;;;3.42;2.50;;;18.50;70.60;;;;;;6309098;22;20310;-82
2022/11/03 03:40:32;;;;;;;4.45;2.42;;;18.50;70.70;;;;;;6232553;22;20281;-81
2022/11/03 03:42:59;;;;;;;4.15;2.40;;;18.50;70.60;;;;;;6310514;22;20215;-81
2022/11/03 03:45:25;;;;;;;3.97;2.35;;;18.50;70.50;;;;;;6282756;22;20155;-81
2022/11/03 03:47:51;;;;;;;4.30;2.72;;;18.40;70.60;;;;;;6308730;22;20160;-82
2022/11/03 03:50:17;;;;;;;2.65;2.22;;;18.50;70.70;;;;;;6309537;22;20131;-82
2022/11/03 03:52:43;;;;;;;3.33;2.40;;;18.40;70.60;;;;;;6308313;22;20139;-81
2022/11/03 03:55:17;;;;;;;3.05;2.50;;;18.40;70.70;;;;;;6311218;22;20133;-82
2022/11/03 03:57:43;;;;;;;3.35;2.40;;;18.40;70.90;;;;;;6234123;22;20149;-81
2022/11/03 04:00:15;;;;;;;5.38;2.55;;;18.40;71.00;;;;;;6310643;22;20137;-82
2022/11/03 04:02:41;;;;;;;3.28;2.50;;;18.40;70.70;;;;;;6259431;22;20156;-81
2022/11/03 04:05:07;;;;;;;3.50;2.60;;;18.40;71.00;;;;;;6285004;22;20136;-82
2022/11/03 04:07:48;;;;;;;3.25;2.40;;;18.50;70.90;;;;;;6312223;22;20184;-82
2022/11/03 04:10:34;;;;;;;2.70;2.15;;;18.40;70.90;;;;;;6287575;22;20159;-80
2022/11/03 04:23:48;;;;;;;3.88;2.45;;;18.40;70.80;;;;;;6287107;22;20132;-81
2022/11/03 04:26:16;;;;;;;2.95;2.35;;;18.40;70.80;;;;;;6284350;22;20167;-80
2022/11/03 04:28:42;;;;;;;3.33;2.10;;;18.40;71.00;;;;;;6285002;22;20145;-81
2022/11/03 04:31:11;;;;;;;4.00;2.33;;;18.40;70.90;;;;;;6284879;22;20139;-81
2022/11/03 04:33:41;;;;;;;2.63;2.22;;;18.40;71.00;;;;;;6284994;22;20178;-81
2022/11/03 04:36:23;;;;;;;4.80;2.70;;;18.40;71.00;;;;;;6183781;22;20215;-82
2022/11/03 04:38:50;;;;;;;3.05;2.30;;;18.50;71.60;;;;;;6312133;22;20456;-82
2022/11/03 04:41:19;;;;;;;3.30;2.40;;;18.40;70.60;;;;;;6285027;22;20136;-82
2022/11/03 04:43:45;;;;;;;2.75;2.50;;;18.40;71.00;;;;;;6258685;22;20455;-81
2022/11/03 04:46:26;;;;;;;3.15;2.40;;;18.30;70.90;;;;;;6284610;22;20176;-82
2022/11/03 04:48:57;;;;;;;3.83;1.88;;;18.40;70.90;;;;;;6212787;22;20174;-81
2022/11/03 04:51:25;;;;;;;3.30;2.47;;;18.40;71.00;;;;;;6233449;22;20158;-82
2022/11/03 04:53:54;;;;;;;3.40;2.33;;;18.40;70.80;;;;;;6312111;22;20215;-81
2022/11/03 04:56:22;;;;;;;3.50;2.50;;;18.40;70.90;;;;;;6284788;22;20140;-82
2022/11/03 04:58:52;;;;;;;3.22;2.30;;;18.40;71.00;;;;;;6258791;22;20144;-81
2022/11/03 05:01:20;;;;;;;3.15;2.47;;;18.40;71.20;;;;;;6207873;22;20251;-83
2022/11/03 05:03:52;;;;;;;3.33;2.10;;;18.30;70.80;;;;;;6284143;22;20143;-81
2022/11/03 05:06:22;;;;;;;2.40;2.20;;;18.40;70.90;;;;;;6207964;22;20199;-82
2022/11/03 05:08:51;;;;;;;3.05;2.30;;;18.40;70.80;;;;;;6284093;22;20137;-83
2022/11/03 05:11:26;;;;;;;2.67;2.13;;;18.40;70.80;;;;;;6311303;22;20133;-81
2022/11/03 05:13:52;;;;;;;2.15;1.88;;;18.40;71.00;;;;;;6311319;22;20132;-81
2022/11/03 05:16:18;;;;;;;3.35;2.60;;;18.40;70.90;;;;;;6311203;22;20219;-82
2022/11/03 05:18:45;;;;;;;3.15;2.42;;;18.40;71.00;;;;;;6311353;22;20211;-81
2022/11/03 05:21:14;;;;;;;2.85;2.30;;;18.40;71.20;;;;;;6283696;22;20143;-81
2022/11/03 05:23:42;;;;;;;3.17;2.30;;;18.40;71.00;;;;;;6258152;22;20152;-82
2022/11/03 05:26:18;;;;;;;2.95;2.50;;;18.40;70.90;;;;;;6283781;22;20171;-82
2022/11/03 05:28:51;;;;;;;3.78;2.65;;;18.40;70.90;;;;;;6283421;22;20128;-81
2022/11/03 05:31:29;;;;;;;3.45;2.40;;;18.30;71.20;;;;;;6208046;22;20144;-81
2022/11/03 05:33:57;;;;;;;3.15;2.50;;;18.40;71.30;;;;;;6284232;22;20193;-81
2022/11/03 05:36:25;;;;;;;3.00;2.50;;;18.40;71.10;;;;;;6259436;22;20459;-82
2022/11/03 05:38:52;;;;;;;2.70;2.00;;;18.30;70.80;;;;;;6311051;22;20140;-82
2022/11/03 05:41:23;;;;;;;2.47;2.08;;;18.30;70.80;;;;;;6311310;22;20147;-82
2022/11/03 05:44:05;;;;;;;2.63;2.22;;;18.40;71.30;;;;;;6311326;22;20164;-82
2022/11/03 05:46:32;;;;;;;3.35;2.22;;;18.40;71.00;;;;;;6283961;22;20175;-81
2022/11/03 05:49:00;;;;;;;3.67;2.53;;;18.40;71.60;;;;;;6312018;22;20143;-81
2022/11/03 05:51:28;;;;;;;2.05;1.85;;;18.30;71.30;;;;;;6283896;22;20140;-81
2022/11/03 05:53:56;;;;;;;3.75;2.85;;;18.30;70.90;;;;;;6283632;22;20641;-82
2022/11/03 05:56:23;;;;;;;2.85;2.22;;;18.30;71.10;;;;;;6311135;22;20136;-81
2022/11/03 05:58:50;;;;;;;2.38;2.10;;;18.30;70.70;;;;;;6311085;22;20594;-80
2022/11/03 06:01:24;;;;;;;2.60;2.35;;;18.30;70.50;;;;;;6283701;22;20206;-81
2022/11/03 06:03:50;;;;;;;2.97;2.20;;;18.30;69.80;;;;;;6283995;22;20187;-81
2022/11/03 06:06:22;;;;;;;2.55;2.17;;;18.30;70.80;;;;;;6283780;22;20615;-81
2022/11/03 06:08:48;;;;;;;3.20;2.33;;;18.30;70.80;;;;;;6284495;22;20128;-81
2022/11/03 06:11:20;;;;;;;3.33;2.50;;;18.30;71.50;;;;;;6285372;22;20152;-80
2022/11/03 06:13:50;;;;;;;2.90;2.38;;;18.30;71.20;;;;;;6286355;22;20148;-81
2022/11/03 06:16:35;;;;;;;3.33;2.00;;;18.30;70.90;;;;;;6210096;22;20158;-81
2022/11/03 06:19:01;;;;;;;3.03;2.20;;;18.30;70.80;;;;;;6287706;22;20136;-82
2022/11/03 06:21:27;;;;;;;2.63;2.35;;;18.40;70.50;;;;;;6261695;22;20132;-82
2022/11/03 06:23:53;;;;;;;2.25;2.00;;;18.40;70.60;;;;;;6315547;22;20141;-82
2022/11/03 06:26:23;;;;;;;2.67;2.22;;;18.40;70.10;;;;;;6287196;22;20191;-81
2022/11/03 06:28:49;;;;;;;4.13;2.40;;;18.40;69.90;;;;;;6260029;22;20189;-81
2022/11/03 06:31:20;;;;;;;2.45;2.08;;;18.40;70.40;;;;;;6285386;22;20174;-82
2022/11/03 06:33:46;;;;;;;4.45;2.15;;;18.50;70.50;;;;;;6259686;22;20140;-82
2022/11/03 06:36:15;;;;;;;2.60;1.92;;;18.40;69.90;;;;;;6311768;22;20133;-80
2022/11/03 06:38:41;;;;;;;2.20;2.00;;;18.40;69.90;;;;;;6284280;22;20143;-81
2022/11/03 06:41:13;;;;;;;3.30;2.15;;;18.50;70.00;;;;;;6283039;22;20223;-81
2022/11/03 06:43:40;;;;;;;3.33;2.42;;;18.50;70.00;;;;;;6310914;22;20143;-82
2022/11/03 06:46:14;;;;;;;2.35;2.10;;;18.50;69.90;;;;;;6284339;22;20163;-81
2022/11/03 06:48:40;;;;;;;3.28;2.22;;;18.50;70.10;;;;;;6260489;22;20598;-81
2022/11/03 06:51:15;;;;;;;3.22;2.10;;;18.50;70.00;;;;;;6285902;22;20259;-81
2022/11/03 06:53:41;;;;;;;3.00;2.10;;;18.50;69.80;;;;;;6285612;22;20159;-82
2022/11/03 06:56:11;;;;;;;2.40;2.08;;;18.50;69.50;;;;;;6313017;22;20132;-81
2022/11/03 06:58:37;;;;;;;2.63;2.15;;;18.50;69.90;;;;;;6284926;22;20212;-82
2022/11/03 07:01:19;;;;;;;2.40;2.20;;;18.50;69.80;;;;;;6259418;22;20506;-81
2022/11/03 07:03:44;;;;;;;2.80;2.00;;;18.50;69.80;;;;;;6285508;22;20135;-81
2022/11/03 07:06:23;;;;;;;2.28;2.08;;;18.50;69.60;;;;;;6284607;22;20159;-81
2022/11/03 07:08:55;;;;;;;3.15;2.10;;;18.50;69.70;;;;;;6261898;22;20152;-81
2022/11/03 07:11:24;;;;;;;2.78;2.05;;;18.60;69.50;;;;;;6209824;22;20460;-81
2022/11/03 07:13:52;;;;;;;2.42;2.00;;;18.60;69.30;;;;;;6259015;22;20453;-81
2022/11/03 07:16:28;;;;;;;2.10;1.90;;;18.50;69.40;;;;;;6311930;22;20263;-81
2022/11/03 07:18:54;;;;;;;2.97;2.13;;;18.60;69.20;;;;;;6174251;23;20153;-81
2022/11/03 07:21:39;;;;;;;3.55;1.98;;;18.60;69.40;;;;;;6196890;23;20163;-81
2022/11/03 07:24:14;;;;;;;2.63;2.10;;;18.60;69.00;;;;;;6222483;23;20161;-81
2022/11/03 07:26:40;;;;;;;1.90;1.70;;;18.60;69.00;;;;;;6202122;23;20173;-81
2022/11/03 07:29:14;;;;;;;2.72;2.15;;;18.50;69.00;;;;;;6250723;23;20196;-81
2022/11/03 07:31:40;;;;;;;2.90;1.95;;;18.60;69.20;;;;;;6227376;23;20141;-81
2022/11/03 07:34:10;;;;;;;4.05;2.05;;;18.60;69.00;;;;;;6200144;23;20528;-81
2022/11/03 07:36:36;;;;;;;2.10;1.90;;;18.60;69.20;;;;;;6249093;23;20153;-81
2022/11/03 07:39:02;;;;;;;2.58;2.38;;;18.60;68.70;;;;;;6250144;23;20154;-82
2022/11/03 07:41:30;;;;;;;2.15;1.95;;;18.60;69.30;;;;;;6225142;23;20137;-82
2022/11/03 07:43:57;;;;;;;2.03;1.83;;;18.60;69.20;;;;;;6225238;23;20157;-81
2022/11/03 07:46:24;;;;;;;2.78;1.80;;;18.60;69.00;;;;;;6225614;23;20176;-82
2022/11/03 07:48:53;;;;;;;2.88;1.95;;;18.60;68.80;;;;;;6203744;22;20148;-82
2022/11/03 07:51:30;;;;;;;2.20;1.80;;;18.60;68.70;;;;;;6314157;22;20140;-81
2022/11/03 07:54:16;;;;;;;3.58;2.38;;;18.60;68.70;;;;;;6237857;22;20148;-81
2022/11/03 07:56:47;;;;;;;3.05;2.10;;;18.70;68.80;;;;;;6290476;22;20634;-81
2022/11/03 07:59:22;;;;;;;2.10;1.85;;;18.60;69.00;;;;;;6285637;22;20475;-81
2022/11/03 08:01:51;;;;;;;2.75;1.92;;;18.60;68.90;;;;;;6210272;22;20175;-81
2022/11/03 08:04:22;;;;;;;3.22;1.98;;;18.60;68.80;;;;;;6284795;22;20137;-82
2022/11/03 08:06:48;;;;;;;1.70;1.50;;;18.70;68.20;;;;;;6290037;22;20184;-82
2022/11/03 08:09:14;;;;;;;3.20;2.00;;;18.70;67.60;;;;;;6310811;22;20583;-81
2022/11/03 08:11:40;;;;;;;2.40;1.83;;;18.70;68.60;;;;;;6312669;22;20139;-82
2022/11/03 08:14:06;;;;;;;2.15;1.95;;;18.70;68.00;;;;;;6312218;22;20145;-81
2022/11/03 08:16:36;;;;;;;3.00;1.90;;;18.70;68.50;;;;;;6285091;22;20144;-80
2022/11/03 08:19:05;;;;;;;2.20;1.70;;;18.70;67.60;;;;;;6259053;22;20163;-81
2022/11/03 08:21:35;;;;;;;2.17;1.98;;;18.60;67.90;;;;;;6233560;22;20211;-81
2022/11/03 08:24:01;;;;;;;2.45;2.08;;;18.70;68.20;;;;;;6234473;22;20289;-81
2022/11/03 08:26:27;;;;;;;2.38;1.60;;;18.70;68.80;;;;;;6284817;22;20435;-81
2022/11/03 08:28:53;;;;;;;2.20;1.85;;;18.70;68.10;;;;;;6285189;22;20146;-81
2022/11/03 08:31:23;;;;;;;2.55;1.95;;;18.60;68.00;;;;;;6284925;22;20190;-82
2022/11/03 08:33:49;;;;;;;1.92;1.67;;;18.70;67.80;;;;;;6235150;22;20239;-79
2022/11/03 08:36:15;;;;;;;3.67;2.00;;;18.70;67.40;;;;;;6313091;22;20154;-81
2022/11/03 08:38:41;;;;;;;2.17;1.83;;;18.70;67.90;;;;;;6310485;22;20132;-81
2022/11/03 08:41:07;;;;;;;2.20;1.90;;;18.70;68.40;;;;;;6310720;22;20140;-82
2022/11/03 08:43:32;;;;;;;1.95;1.75;;;18.70;67.80;;;;;;6310764;22;20172;-81
2022/11/03 08:45:58;;;;;;;2.10;1.77;;;18.70;68.00;;;;;;6311977;22;20132;-82
2022/11/03 08:48:26;;;;;;;2.25;1.95;;;18.70;67.40;;;;;;6312279;22;20139;-81
2022/11/03 08:50:53;;;;;;;2.30;1.85;;;18.70;68.00;;;;;;6311073;22;20130;-82
2022/11/03 08:53:21;;;;;;;1.75;1.55;;;18.70;68.50;;;;;;6310634;22;20132;-81
2022/11/03 08:55:52;;;;;;;2.42;2.13;;;18.70;68.10;;;;;;6313048;22;20143;-82
2022/11/03 08:58:18;;;;;;;3.03;1.92;;;18.70;68.30;;;;;;6235187;22;20206;-82
2022/11/03 09:00:44;;;;;;;2.83;2.00;;;18.70;67.60;;;;;;6312502;22;20556;-81
2022/11/03 09:03:10;;;;;;;2.28;1.88;;;18.70;68.20;;;;;;6312221;22;20132;-81
2022/11/03 09:05:36;;;;;;;1.95;1.73;;;18.70;67.90;;;;;;6286034;22;20514;-80
2022/11/03 09:08:02;;;;;;;2.03;1.80;;;18.70;67.20;;;;;;6285777;22;20191;-81
2022/11/03 09:10:28;;;;;;;2.85;2.00;;;18.70;68.30;;;;;;6313591;22;20511;-81
2022/11/03 09:12:54;;;;;;;2.63;1.88;;;18.70;68.40;;;;;;6315886;22;20215;-80
2022/11/03 09:15:20;;;;;;;2.50;1.65;;;18.70;67.60;;;;;;6289681;22;20155;-82
2022/11/03 09:17:46;;;;;;;1.92;1.73;;;18.70;67.70;;;;;;6289769;22;20156;-80
2022/11/03 09:20:17;;;;;;;1.77;1.52;;;18.80;67.60;;;;;;6291022;22;20602;-82
2022/11/03 09:22:43;;;;;;;2.45;2.10;;;18.80;67.40;;;;;;6268934;22;20231;-82
2022/11/03 09:25:09;;;;;;;2.15;1.80;;;18.70;67.60;;;;;;6317251;22;20194;-81
2022/11/03 09:27:36;;;;;;;2.70;1.70;;;18.80;67.60;;;;;;6287733;22;20634;-82
2022/11/03 09:30:02;;;;;;;2.03;1.63;;;18.80;67.70;;;;;;6286500;22;20128;-82
2022/11/03 09:32:28;;;;;;;2.63;1.83;;;18.80;67.50;;;;;;6260492;22;20159;-82
2022/11/03 09:34:56;;;;;;;2.60;1.70;;;18.80;68.00;;;;;;6311021;22;20132;-82
2022/11/03 09:37:24;;;;;;;1.92;1.73;;;18.80;67.40;;;;;;6208873;22;20156;-82
2022/11/03 09:39:54;;;;;;;3.40;2.10;;;18.80;67.60;;;;;;6233796;22;20156;-82
2022/11/03 09:42:22;;;;;;;1.88;1.70;;;18.80;67.60;;;;;;6209902;22;20151;-82
2022/11/03 09:44:54;;;;;;;3.30;1.63;;;18.80;67.80;;;;;;6233501;22;20159;-82
2022/11/03 09:47:31;;;;;;;2.63;1.55;;;18.80;67.40;;;;;;6208707;22;20209;-82
2022/11/03 09:50:03;;;;;;;1.75;1.63;;;18.80;67.40;;;;;;6240320;22;20467;-82
2022/11/03 09:52:30;;;;;;;2.90;1.88;;;18.80;66.90;;;;;;6263905;22;20156;-82
2022/11/03 09:54:58;;;;;;;1.98;1.55;;;18.80;66.80;;;;;;6213920;22;20174;-82
2022/11/03 09:57:28;;;;;;;2.13;1.80;;;18.80;66.60;;;;;;6236663;22;20451;-82
2022/11/03 09:59:56;;;;;;;2.55;1.70;;;18.80;66.90;;;;;;6208792;22;20576;-82
2022/11/03 10:02:34;;;;;;;2.55;1.85;;;18.80;66.50;;;;;;6233455;22;20206;-82
2022/11/03 10:05:01;;;;;;;1.60;1.50;;;18.90;66.80;;;;;;6235559;22;20646;-82
2022/11/03 10:07:28;;;;;;;3.10;1.70;;;18.90;66.30;;;;;;6258320;22;20716;-82
2022/11/03 10:09:55;;;;;;;1.45;1.35;;;18.90;66.80;;;;;;6283972;22;20155;-82
2022/11/03 10:12:23;;;;;;;2.33;1.60;;;18.90;66.10;;;;;;6256719;22;20148;-82
2022/11/03 10:14:50;;;;;;;2.20;2.00;;;18.90;67.30;;;;;;6233238;22;20472;-82
2022/11/03 10:17:19;;;;;;;1.80;1.70;;;18.90;66.80;;;;;;6259811;22;20156;-82
2022/11/03 10:19:49;;;;;;;2.05;1.60;;;18.90;66.40;;;;;;6244412;22;20506;-81
2022/11/03 10:22:41;;;;;;;2.25;1.92;;;18.80;66.80;;;;;;6269270;22;20151;-78
2022/11/03 10:25:39;;;;;;;2.17;1.63;;;18.90;66.70;;;;;;6247317;22;20147;-81
2022/11/03 10:28:20;;;;;;;1.67;1.55;;;18.80;66.20;;;;;;6264773;22;20187;-82
2022/11/03 10:30:51;;;;;;;1.88;1.40;;;18.90;66.00;;;;;;6241551;22;20143;-81
2022/11/03 10:33:27;;;;;;;1.98;1.60;;;18.90;66.50;;;;;;6240423;22;20152;-82
2022/11/03 10:35:58;;;;;;;2.08;1.50;;;18.90;66.80;;;;;;6290330;22;20196;-82
2022/11/03 10:38:26;;;;;;;2.45;1.77;;;18.80;66.40;;;;;;6315996;22;20128;-82
2022/11/03 10:40:52;;;;;;;2.00;1.67;;;18.90;67.00;;;;;;6290673;22;20147;-82
2022/11/03 10:43:23;;;;;;;2.30;1.83;;;18.90;67.20;;;;;;6315149;22;20141;-82
2022/11/03 10:45:49;;;;;;;1.98;1.70;;;18.90;65.90;;;;;;6263543;22;20173;-82
2022/11/03 10:48:15;;;;;;;2.10;1.55;;;18.90;65.90;;;;;;6290169;22;20281;-82
2022/11/03 10:50:41;;;;;;;2.35;1.60;;;18.90;65.90;;;;;;6311938;22;20148;-82
2022/11/03 10:53:15;;;;;;;1.70;1.60;;;19.00;66.00;;;;;;6288478;22;20156;-82
2022/11/03 10:55:41;;;;;;;1.63;1.52;;;18.90;65.50;;;;;;6290330;22;20160;-82
2022/11/03 10:58:07;;;;;;;1.85;1.65;;;19.00;66.50;;;;;;6290845;22;20464;-82
2022/11/03 11:00:39;;;;;;;2.28;1.70;;;18.90;66.10;;;;;;6318437;22;20139;-83
2022/11/03 11:03:05;;;;;;;2.38;1.77;;;18.90;66.70;;;;;;6239981;22;20210;-82
2022/11/03 11:05:31;;;;;;;2.85;2.20;;;19.00;67.40;;;;;;6291248;22;20146;-83
2022/11/03 11:07:57;;;;;;;2.53;1.77;;;19.00;67.20;;;;;;6316154;22;20199;-82
2022/11/03 11:10:25;;;;;;;2.08;1.70;;;18.90;67.00;;;;;;6290383;22;20547;-83
2022/11/03 11:13:24;;;;;;;2.60;2.05;;;19.00;67.20;;;;;;6316144;22;20576;-83
2022/11/03 11:15:57;;;;;;;3.97;1.98;;;19.00;67.30;;;;;;6291078;22;20186;-82
2022/11/03 11:19:01;;;;;;;2.17;1.75;;;19.00;67.50;;;;;;6314375;22;20132;-83
2022/11/03 11:21:49;;;;;;;1.70;1.60;;;19.00;67.40;;;;;;6296572;22;20207;-82
2022/11/03 11:24:55;;;;;;;1.83;1.67;;;19.00;67.40;;;;;;6294484;22;20152;-82
2022/11/03 11:27:58;;;;;;;2.20;1.58;;;19.00;66.80;;;;;;6293290;22;20604;-83
2022/11/03 11:30:45;;;;;;;1.83;1.65;;;19.10;66.00;;;;;;6313393;22;20223;-82
2022/11/03 11:33:13;;;;;;;2.33;1.58;;;19.00;66.00;;;;;;6315132;22;20141;-83
2022/11/03 11:36:01;;;;;;;2.95;1.60;;;19.00;65.10;;;;;;6312370;22;20131;-82
2022/11/03 11:38:43;;;;;;;2.03;1.50;;;19.00;65.60;;;;;;6286454;22;20819;-82
2022/11/03 11:41:10;;;;;;;2.75;1.63;;;19.10;65.80;;;;;;6315801;22;20139;-82
2022/11/03 11:43:35;;;;;;;3.08;1.70;;;19.00;65.00;;;;;;6288809;22;20156;-83
2022/11/03 11:46:32;;;;;;;1.80;1.70;;;19.00;65.70;;;;;;6287822;22;20133;-82
2022/11/03 11:49:15;;;;;;;2.97;1.80;;;19.00;65.50;;;;;;6314597;22;20124;-80
2022/11/03 11:51:41;;;;;;;2.80;1.63;;;19.00;67.00;;;;;;6317114;22;20154;-82
2022/11/03 11:54:07;;;;;;;2.00;1.60;;;18.90;66.10;;;;;;6292857;22;20286;-82
2022/11/03 11:56:39;;;;;;;3.03;1.52;;;18.90;65.70;;;;;;6266913;22;20159;-82
2022/11/03 11:59:15;;;;;;;2.42;1.80;;;19.00;65.90;;;;;;6267929;22;20166;-82
2022/11/03 12:01:43;;;;;;;2.55;1.70;;;19.00;65.80;;;;;;6265661;22;20136;-83
2022/11/03 12:04:31;;;;;;;2.55;1.70;;;19.00;65.50;;;;;;6315846;22;20147;-83
2022/11/03 12:06:57;;;;;;;2.38;1.77;;;19.00;65.60;;;;;;6252109;22;20223;-82
2022/11/03 12:09:26;;;;;;;1.67;1.58;;;19.00;65.60;;;;;;6228135;23;20201;-82
2022/11/03 12:11:56;;;;;;;1.55;1.27;;;19.00;65.60;;;;;;6202666;23;20169;-82
2022/11/03 12:14:25;;;;;;;2.45;1.40;;;19.00;65.50;;;;;;6226537;23;20150;-81
2022/11/03 12:16:54;;;;;;;1.88;1.67;;;19.00;65.60;;;;;;6227015;23;20149;-82
2022/11/03 12:19:38;;;;;;;2.28;1.60;;;19.00;65.90;;;;;;6228631;23;20157;-82
2022/11/03 12:22:07;;;;;;;1.60;1.40;;;19.00;65.50;;;;;;6203876;23;20513;-82
2022/11/03 12:24:37;;;;;;;2.25;1.48;;;19.00;66.00;;;;;;6205072;23;20470;-82
2022/11/03 12:27:17;;;;;;;2.35;1.73;;;19.00;66.10;;;;;;6229451;23;20185;-82
2022/11/03 12:29:42;;;;;;;2.25;1.65;;;18.90;66.50;;;;;;6229579;23;20216;-82
2022/11/03 12:32:10;;;;;;;3.45;1.98;;;18.90;66.00;;;;;;6204727;23;20150;-83
2022/11/03 12:34:36;;;;;;;1.83;1.65;;;18.90;65.90;;;;;;6199640;23;20157;-82
2022/11/03 12:37:02;;;;;;;2.75;1.80;;;19.00;66.10;;;;;;6155035;23;20153;-83
2022/11/03 12:39:28;;;;;;;2.30;1.50;;;18.90;65.60;;;;;;6254940;23;20210;-83
2022/11/03 12:41:56;;;;;;;3.38;1.70;;;18.90;65.30;;;;;;6228829;23;20149;-80
2022/11/03 12:44:21;;;;;;;1.90;1.60;;;19.00;65.90;;;;;;6228602;23;20181;-82
2022/11/03 12:46:48;;;;;;;2.47;1.73;;;19.00;64.90;;;;;;6253906;23;20177;-82
2022/11/03 12:49:13;;;;;;;3.20;1.63;;;19.00;65.20;;;;;;6228337;23;20165;-82
2022/11/03 12:51:39;;;;;;;2.20;1.60;;;19.00;65.20;;;;;;6255620;23;20134;-81
2022/11/03 12:54:06;;;;;;;3.80;1.83;;;19.00;64.50;;;;;;6230867;23;20153;-82
2022/11/03 12:56:35;;;;;;;1.88;1.60;;;19.00;65.00;;;;;;6255526;23;20625;-83
2022/11/03 12:59:02;;;;;;;4.05;1.83;;;19.00;64.90;;;;;;6230975;23;20153;-82
2022/11/03 13:01:32;;;;;;;3.42;1.80;;;19.00;65.10;;;;;;6255370;23;20161;-82
2022/11/03 13:04:05;;;;;;;1.70;1.60;;;19.00;65.20;;;;;;6204258;23;20184;-83
2022/11/03 13:06:31;;;;;;;2.22;1.40;;;19.10;64.80;;;;;;6235767;22;20616;-82
2022/11/03 13:09:00;;;;;;;1.83;1.50;;;19.00;65.20;;;;;;6259107;22;20137;-82
2022/11/03 13:14:18;;;;;;;3.92;1.60;;;19.00;64.90;;;;;;6242588;22;20149;-82
2022/11/03 13:16:48;;;;;;;2.03;1.83;;;19.00;65.20;;;;;;6183846;22;20244;-82
2022/11/03 13:19:19;;;;;;;2.58;1.63;;;19.00;65.20;;;;;;6184770;22;20226;-82
2022/11/03 13:21:48;;;;;;;3.05;1.75;;;19.00;65.80;;;;;;6185795;22;20179;-82
2022/11/03 13:24:16;;;;;;;1.60;1.50;;;19.00;65.40;;;;;;6234716;22;20190;-82